Time;durP1;ratioP1;P1;durP2;ratioP2;P2;SDS_P1;SDS_P2;PMS_P1;PMS_P2;Temp;Humidity;BMP_temperature;BMP_pressure;BME280_temperature;BME280_humidity;BME280_pressure;Samples;Min_cycle;Max_cycle;Signal;HPM_P1;HPM_P2
2023/02/15 00:01:55;;;;;;;70.38;27.83;;;6.70;99.90;;;;;;5061100;28;20207;-80
2023/02/15 00:04:23;;;;;;;57.88;28.42;;;6.70;99.90;;;;;;5057314;28;20186;-83
2023/02/15 00:06:49;;;;;;;54.67;26.95;;;6.70;99.90;;;;;;5063078;28;20171;-83
2023/02/15 00:09:15;;;;;;;63.63;27.95;;;6.60;99.90;;;;;;5044035;28;20177;-81
2023/02/15 00:11:49;;;;;;;59.65;27.80;;;6.50;99.90;;;;;;5062361;28;20190;-85
2023/02/15 00:14:23;;;;;;;64.38;27.75;;;6.40;99.90;;;;;;5061522;28;20187;-80
2023/02/15 00:16:51;;;;;;;72.60;29.02;;;6.40;99.90;;;;;;5061348;28;20531;-82
2023/02/15 00:19:19;;;;;;;59.42;27.00;;;6.30;99.90;;;;;;5059238;28;20168;-84
2023/02/15 00:21:45;;;;;;;64.07;27.63;;;6.30;99.90;;;;;;5061944;28;20217;-84
2023/02/15 00:24:13;;;;;;;60.42;29.17;;;6.20;99.90;;;;;;5059381;28;20167;-80
2023/02/15 00:26:40;;;;;;;54.92;28.13;;;6.10;99.90;;;;;;5058731;28;20159;-80
2023/02/15 00:29:06;;;;;;;53.13;29.67;;;6.10;99.90;;;;;;5057083;28;20163;-80
2023/02/15 00:31:32;;;;;;;65.65;25.83;;;6.20;99.90;;;;;;5057349;28;20689;-83
2023/02/15 00:34:22;;;;;;;62.28;28.13;;;6.30;99.90;;;;;;5057875;28;20221;-90
2023/02/15 00:36:48;;;;;;;63.00;29.10;;;6.20;99.90;;;;;;5018970;28;20186;-82
2023/02/15 00:39:15;;;;;;;58.83;28.25;;;6.10;99.90;;;;;;5053942;28;20168;-79
2023/02/15 00:41:41;;;;;;;57.90;26.98;;;6.10;99.90;;;;;;5053580;28;20627;-80
2023/02/15 00:44:07;;;;;;;56.20;26.95;;;6.20;99.90;;;;;;5053921;28;20164;-80
2023/02/15 00:46:33;;;;;;;60.50;27.75;;;6.30;99.90;;;;;;5054128;28;20168;-79
2023/02/15 00:48:59;;;;;;;60.08;29.48;;;6.20;99.90;;;;;;5053599;28;20535;-79
2023/02/15 00:51:26;;;;;;;78.00;30.60;;;6.10;99.90;;;;;;5053287;28;20167;-79
2023/02/15 00:53:51;;;;;;;67.25;28.48;;;6.10;99.90;;;;;;5053398;28;20659;-80
2023/02/15 00:56:17;;;;;;;67.93;30.05;;;6.00;99.90;;;;;;5053981;28;20175;-79
2023/02/15 00:58:43;;;;;;;63.00;29.27;;;5.80;99.90;;;;;;5054996;28;20201;-80
2023/02/15 01:01:11;;;;;;;61.83;27.17;;;5.90;99.90;;;;;;5059356;28;20596;-84
2023/02/15 01:03:37;;;;;;;72.15;29.73;;;6.00;99.90;;;;;;5058134;28;20217;-82
2023/02/15 01:06:04;;;;;;;56.15;28.63;;;6.00;99.90;;;;;;5058461;28;20167;-86
2023/02/15 01:08:30;;;;;;;59.33;28.02;;;5.90;99.90;;;;;;5058385;28;20182;-81
2023/02/15 01:10:56;;;;;;;66.90;29.95;;;5.80;99.90;;;;;;5059061;28;20250;-82
2023/02/15 01:13:21;;;;;;;61.78;28.95;;;5.70;99.90;;;;;;5057795;28;20270;-81
2023/02/15 01:15:54;;;;;;;61.17;29.38;;;5.70;99.90;;;;;;5055182;28;20565;-88
2023/02/15 01:18:20;;;;;;;54.20;28.75;;;5.70;99.90;;;;;;5053387;28;20172;-82
2023/02/15 01:20:47;;;;;;;54.08;29.27;;;5.70;99.90;;;;;;5035391;28;20230;-86
2023/02/15 01:23:13;;;;;;;69.05;30.35;;;5.70;99.90;;;;;;5053540;28;20195;-81
2023/02/15 01:25:38;;;;;;;56.70;28.10;;;5.60;99.90;;;;;;5052272;28;20178;-81
2023/02/15 01:28:04;;;;;;;64.72;30.70;;;5.60;99.90;;;;;;5052637;28;20201;-80
2023/02/15 01:30:30;;;;;;;66.50;30.42;;;5.60;99.90;;;;;;5052835;28;20179;-80
2023/02/15 01:32:56;;;;;;;64.63;29.13;;;5.70;99.90;;;;;;5052333;28;20218;-80
2023/02/15 01:35:21;;;;;;;63.92;29.92;;;5.80;99.90;;;;;;5052417;28;20241;-81
2023/02/15 01:37:47;;;;;;;73.03;31.70;;;5.60;99.90;;;;;;5052601;28;20239;-80
2023/02/15 01:40:15;;;;;;;72.32;30.77;;;5.60;99.90;;;;;;5052823;28;20191;-85
2023/02/15 01:42:41;;;;;;;60.58;29.45;;;5.50;99.90;;;;;;5053318;28;20290;-88
2023/02/15 01:45:28;;;;;;;69.50;28.40;;;5.40;99.90;;;;;;5053447;28;20195;-88
2023/02/15 01:47:56;;;;;;;61.20;28.70;;;5.40;99.90;;;;;;5053395;28;20166;-83
2023/02/15 01:50:30;;;;;;;68.25;29.17;;;5.40;99.90;;;;;;5053319;28;20171;-88
2023/02/15 01:53:03;;;;;;;60.53;27.35;;;5.40;99.90;;;;;;5053375;28;20187;-88
2023/02/15 01:55:34;;;;;;;69.78;29.73;;;5.50;99.90;;;;;;5052888;28;20526;-81
2023/02/15 01:58:00;;;;;;;70.40;29.33;;;5.30;99.90;;;;;;5052338;28;20163;-80
2023/02/15 02:00:26;;;;;;;56.72;28.50;;;5.20;99.90;;;;;;5052129;28;20225;-82
2023/02/15 02:02:55;;;;;;;54.92;28.05;;;5.10;99.90;;;;;;5034282;28;20179;-82
2023/02/15 02:05:21;;;;;;;64.90;26.98;;;5.20;99.90;;;;;;5052430;28;20217;-84
2023/02/15 02:07:48;;;;;;;60.45;28.33;;;5.30;99.90;;;;;;5052234;28;20167;-80
2023/02/15 02:10:17;;;;;;;60.38;27.45;;;5.40;99.90;;;;;;5052384;28;20171;-81
2023/02/15 02:12:45;;;;;;;62.25;28.65;;;5.50;99.90;;;;;;5033717;28;20194;-81
2023/02/15 02:15:12;;;;;;;59.65;26.90;;;5.60;99.90;;;;;;5052020;28;20171;-78
2023/02/15 02:17:40;;;;;;;52.65;27.10;;;5.60;99.90;;;;;;5033790;28;20278;-80
2023/02/15 02:20:28;;;;;;;58.40;27.38;;;5.30;99.90;;;;;;5034020;28;20215;-79
2023/02/15 02:23:13;;;;;;;58.45;27.98;;;5.30;99.90;;;;;;5051810;28;20183;-82
2023/02/15 02:26:08;;;;;;;55.33;26.77;;;5.30;99.90;;;;;;5052712;28;20228;-82
2023/02/15 02:28:36;;;;;;;55.75;28.08;;;5.30;99.90;;;;;;5052585;28;20171;-83
2023/02/15 02:31:14;;;;;;;55.97;29.65;;;5.20;99.90;;;;;;5052662;28;20211;-81
2023/02/15 02:33:43;;;;;;;54.75;27.52;;;5.10;99.90;;;;;;5052700;28;20191;-83
2023/02/15 02:36:18;;;;;;;54.40;27.85;;;5.00;99.90;;;;;;5053391;28;20218;-80
2023/02/15 02:38:49;;;;;;;62.47;27.35;;;5.00;99.90;;;;;;5056533;28;20183;-86
2023/02/15 02:41:29;;;;;;;61.38;27.50;;;5.20;99.90;;;;;;5038659;28;20219;-86
2023/02/15 02:44:27;;;;;;;62.08;29.20;;;5.30;99.90;;;;;;5056774;28;20179;-86
2023/02/15 02:47:18;;;;;;;62.20;29.00;;;5.30;99.90;;;;;;5039610;28;20175;-87
2023/02/15 02:49:44;;;;;;;57.05;26.27;;;5.30;99.90;;;;;;5057089;28;20171;-86
2023/02/15 02:52:47;;;;;;;61.42;29.30;;;5.30;99.90;;;;;;5056632;28;20640;-88
2023/02/15 02:55:31;;;;;;;54.72;27.83;;;5.20;99.90;;;;;;5055997;28;20159;-82
2023/02/15 02:58:04;;;;;;;54.65;27.63;;;5.20;99.90;;;;;;5056437;28;20255;-89
2023/02/15 03:00:36;;;;;;;68.07;28.05;;;5.10;99.90;;;;;;5038212;28;20284;-86
2023/02/15 03:03:28;;;;;;;63.63;27.75;;;5.00;99.90;;;;;;5055999;28;20183;-83
2023/02/15 03:05:59;;;;;;;66.28;27.70;;;4.90;99.90;;;;;;5055175;28;20192;-85
2023/02/15 03:08:35;;;;;;;60.70;28.27;;;5.00;99.90;;;;;;5055728;28;20164;-84
2023/02/15 03:11:03;;;;;;;71.80;27.88;;;5.00;99.90;;;;;;5055636;28;20515;-82
2023/02/15 03:13:29;;;;;;;63.17;27.60;;;5.00;99.90;;;;;;5054469;28;20678;-81
2023/02/15 03:18:57;;;;;;;60.47;28.52;;;4.90;99.90;;;;;;5054676;28;20201;-80
2023/02/15 03:21:49;;;;;;;53.65;29.58;;;4.80;99.90;;;;;;5054238;28;20332;-81
2023/02/15 03:24:21;;;;;;;60.95;28.45;;;4.70;99.90;;;;;;5054461;28;20616;-80
2023/02/15 03:26:51;;;;;;;59.53;27.50;;;4.90;99.90;;;;;;5054753;28;20167;-82
2023/02/15 03:29:19;;;;;;;57.40;27.20;;;4.90;99.90;;;;;;5054817;28;20205;-80
2023/02/15 03:31:50;;;;;;;57.40;28.17;;;4.80;99.90;;;;;;5054938;28;20191;-79
2023/02/15 03:34:17;;;;;;;51.75;27.10;;;4.70;99.90;;;;;;5054638;28;20167;-79
2023/02/15 03:36:57;;;;;;;56.83;27.52;;;4.80;99.90;;;;;;5055011;28;20163;-80
2023/02/15 03:39:35;;;;;;;63.80;28.27;;;4.70;99.90;;;;;;5054833;28;20193;-80
2023/02/15 03:42:01;;;;;;;53.17;27.42;;;4.70;99.90;;;;;;5054789;28;20215;-79
2023/02/15 03:44:31;;;;;;;55.75;27.23;;;4.80;99.90;;;;;;5054610;28;20186;-79
2023/02/15 03:47:14;;;;;;;53.30;28.23;;;4.80;99.90;;;;;;5054556;28;20175;-80
2023/02/15 03:50:03;;;;;;;62.35;28.48;;;4.90;99.90;;;;;;5054039;28;20167;-80
2023/02/15 03:52:32;;;;;;;56.65;26.48;;;4.50;99.90;;;;;;5054480;28;20194;-80
2023/02/15 03:54:58;;;;;;;51.28;26.60;;;4.50;99.90;;;;;;5054381;28;20167;-81
2023/02/15 04:03:31;;;;;;;52.63;26.58;;;4.40;99.90;;;;;;5055570;28;20274;-85
2023/02/15 04:05:56;;;;;;;58.35;28.27;;;4.30;99.90;;;;;;5055222;28;20171;-80
2023/02/15 04:10:51;;;;;;;58.05;26.48;;;4.40;99.90;;;;;;5055060;28;20183;-79
2023/02/15 04:11:08;;;;;;;53.17;26.67;;;4.50;99.90;;;;;;5054954;28;20171;-83
2023/02/15 04:13:33;;;;;;;54.13;26.73;;;4.60;99.90;;;;;;5054618;28;20274;-81
2023/02/15 04:16:05;;;;;;;52.28;26.67;;;4.70;99.90;;;;;;5054838;28;20619;-85
2023/02/15 04:26:58;;;;;;;56.55;26.90;;;4.20;99.90;;;;;;5054373;28;20236;-80
2023/02/15 04:29:25;;;;;;;57.10;26.15;;;4.30;99.90;;;;;;5054119;28;20209;-79
2023/02/15 04:31:52;;;;;;;62.25;29.20;;;4.40;99.90;;;;;;5053994;28;20193;-83
2023/02/15 04:34:18;;;;;;;59.60;27.25;;;4.60;99.90;;;;;;5054415;28;20167;-82
2023/02/15 04:36:43;;;;;;;55.50;26.65;;;4.50;99.90;;;;;;5054165;28;20173;-80
2023/02/15 04:39:12;;;;;;;57.20;25.02;;;4.40;99.90;;;;;;5053418;28;20171;-81
2023/02/15 04:41:38;;;;;;;57.10;26.65;;;4.50;99.90;;;;;;5035981;28;20225;-83
2023/02/15 04:44:04;;;;;;;57.85;27.08;;;4.60;99.90;;;;;;5053855;28;20246;-82
2023/02/15 04:46:30;;;;;;;51.40;26.50;;;4.50;99.90;;;;;;5054261;28;20620;-82
2023/02/15 04:48:56;;;;;;;52.85;26.83;;;4.40;99.90;;;;;;5053815;28;20159;-84
2023/02/15 04:51:22;;;;;;;56.10;27.65;;;4.40;99.90;;;;;;5053077;28;20201;-79
2023/02/15 04:53:48;;;;;;;54.10;26.52;;;4.30;99.90;;;;;;5035021;28;20159;-79
2023/02/15 04:56:13;;;;;;;54.97;26.67;;;4.20;99.90;;;;;;5053432;28;20174;-80
2023/02/15 04:58:42;;;;;;;57.67;25.58;;;4.10;99.90;;;;;;5053337;28;20615;-80
2023/02/15 05:01:10;;;;;;;54.70;27.40;;;4.30;99.90;;;;;;5052279;28;20581;-79
2023/02/15 05:03:36;;;;;;;57.72;27.50;;;4.00;99.90;;;;;;5052959;28;20222;-80
2023/02/15 05:06:02;;;;;;;52.85;27.17;;;4.00;99.90;;;;;;5053109;28;20155;-85
2023/02/15 05:08:27;;;;;;;65.22;28.02;;;4.10;99.90;;;;;;5053173;28;20164;-86
2023/02/15 05:10:53;;;;;;;56.53;26.02;;;4.20;99.90;;;;;;5035022;28;20178;-79
2023/02/15 05:13:19;;;;;;;63.28;29.40;;;4.30;99.90;;;;;;5052879;28;20518;-83
2023/02/15 05:15:52;;;;;;;60.63;26.25;;;4.40;99.90;;;;;;5053098;28;20529;-84
2023/02/15 05:18:19;;;;;;;53.05;26.45;;;4.40;99.90;;;;;;5053096;28;20214;-80
2023/02/15 05:20:45;;;;;;;54.53;26.70;;;4.20;99.90;;;;;;5052978;28;20194;-81
2023/02/15 05:23:11;;;;;;;49.83;27.48;;;4.10;99.90;;;;;;5052961;28;20193;-82
2023/02/15 05:28:23;;;;;;;66.10;27.20;;;4.20;99.90;;;;;;5053129;28;20201;-79
2023/02/15 05:31:10;;;;;;;56.90;27.98;;;4.10;99.90;;;;;;5052989;28;20163;-80
2023/02/15 05:33:36;;;;;;;53.05;27.30;;;4.00;99.90;;;;;;5052799;28;20552;-80
2023/02/15 05:36:02;;;;;;;60.72;27.55;;;3.90;99.90;;;;;;5053253;28;20164;-82
2023/02/15 05:38:29;;;;;;;52.13;26.77;;;4.00;99.90;;;;;;5052913;28;20202;-81
2023/02/15 05:40:54;;;;;;;64.15;28.30;;;4.10;99.90;;;;;;5035003;28;20558;-80
2023/02/15 05:43:20;;;;;;;57.45;27.15;;;4.20;99.90;;;;;;5052901;28;20280;-80
2023/02/15 05:45:47;;;;;;;56.03;27.83;;;4.30;99.90;;;;;;5053003;28;20178;-80
2023/02/15 05:48:13;;;;;;;59.22;28.48;;;4.20;99.90;;;;;;5052057;28;20174;-80
2023/02/15 05:50:38;;;;;;;63.03;27.92;;;4.30;99.90;;;;;;5052412;28;20258;-80
2023/02/15 05:53:04;;;;;;;65.00;27.42;;;4.30;99.90;;;;;;5052148;28;20183;-80
2023/02/15 05:55:29;;;;;;;53.67;27.55;;;4.40;99.90;;;;;;5052342;28;20187;-81
2023/02/15 05:57:55;;;;;;;70.00;29.17;;;4.40;99.90;;;;;;5052260;28;20196;-82
2023/02/15 06:00:21;;;;;;;60.55;28.00;;;4.50;99.90;;;;;;5052135;28;20191;-80
2023/02/15 06:02:46;;;;;;;60.50;28.77;;;4.50;99.90;;;;;;5052226;28;20544;-80
2023/02/15 06:05:12;;;;;;;60.67;28.67;;;4.60;99.90;;;;;;5052314;28;20250;-80
2023/02/15 06:07:42;;;;;;;50.00;25.70;;;4.50;99.90;;;;;;5052932;28;20182;-80
2023/02/15 06:10:08;;;;;;;56.75;29.30;;;4.40;99.90;;;;;;5052221;28;20163;-89
2023/02/15 06:12:35;;;;;;;59.20;26.73;;;4.40;99.90;;;;;;5054978;28;20183;-80
2023/02/15 06:15:00;;;;;;;65.65;27.00;;;4.40;99.90;;;;;;5056367;28;20217;-80
2023/02/15 06:17:26;;;;;;;61.28;26.75;;;4.40;99.90;;;;;;5056008;28;20182;-80
2023/02/15 06:19:54;;;;;;;49.88;26.17;;;4.50;99.90;;;;;;5056150;28;20179;-82
2023/02/15 06:22:20;;;;;;;63.30;28.02;;;4.50;99.90;;;;;;5055995;28;20545;-81
2023/02/15 06:24:46;;;;;;;51.38;26.42;;;4.50;99.90;;;;;;5057356;28;20246;-79
2023/02/15 06:27:11;;;;;;;66.13;29.23;;;4.50;99.90;;;;;;5056113;28;20182;-79
2023/02/15 06:29:37;;;;;;;56.13;28.00;;;4.40;99.90;;;;;;5055804;28;20167;-78
2023/02/15 06:32:03;;;;;;;62.92;27.40;;;4.50;99.90;;;;;;5055988;28;20198;-79
2023/02/15 06:34:30;;;;;;;56.25;27.10;;;4.40;99.90;;;;;;5056647;28;20167;-81
2023/02/15 06:36:56;;;;;;;58.58;26.73;;;4.50;99.90;;;;;;5056542;28;20212;-79
2023/02/15 06:39:21;;;;;;;59.60;27.52;;;4.60;99.90;;;;;;5038779;28;20246;-79
2023/02/15 06:41:47;;;;;;;63.08;26.13;;;4.60;99.90;;;;;;5056720;28;20772;-78
2023/02/15 06:44:12;;;;;;;58.65;28.17;;;4.70;99.90;;;;;;5056174;28;20183;-79
2023/02/15 06:46:38;;;;;;;63.13;26.58;;;4.70;99.90;;;;;;5055777;28;20178;-81
2023/02/15 06:49:04;;;;;;;53.63;27.00;;;4.70;99.90;;;;;;5055785;28;20535;-78
2023/02/15 06:51:29;;;;;;;58.60;24.05;;;4.70;99.90;;;;;;5055967;28;20175;-77
2023/02/15 06:53:55;;;;;;;50.83;27.38;;;4.70;99.90;;;;;;5055516;28;20238;-78
2023/02/15 06:56:20;;;;;;;63.22;26.75;;;4.70;99.90;;;;;;5055356;28;20179;-79
2023/02/15 06:58:49;;;;;;;53.28;26.35;;;4.70;99.90;;;;;;5058343;28;20546;-77
2023/02/15 07:01:15;;;;;;;76.20;28.70;;;4.50;99.90;;;;;;5046811;28;20217;-79
2023/02/15 07:03:40;;;;;;;63.47;27.30;;;4.40;99.90;;;;;;5037432;28;20277;-84
2023/02/15 07:06:08;;;;;;;60.72;27.65;;;4.50;99.90;;;;;;5056515;28;20178;-80
2023/02/15 07:08:34;;;;;;;69.78;26.15;;;4.50;99.90;;;;;;5055713;28;20194;-79
2023/02/15 07:13:45;;;;;;;56.47;26.58;;;4.70;99.90;;;;;;5056299;28;20567;-80
2023/02/15 07:16:11;;;;;;;61.25;26.60;;;4.80;99.90;;;;;;5055676;28;20160;-81
2023/02/15 07:18:37;;;;;;;52.42;27.00;;;4.80;99.90;;;;;;5040156;28;20627;-80
2023/02/15 07:21:03;;;;;;;63.85;28.25;;;4.80;99.90;;;;;;5054899;28;20871;-80
2023/02/15 07:23:28;;;;;;;54.53;26.42;;;4.90;99.90;;;;;;5053965;28;20190;-81
2023/02/15 07:25:58;;;;;;;54.17;27.23;;;5.10;99.90;;;;;;5054809;28;20159;-78
2023/02/15 07:28:24;;;;;;;62.35;26.30;;;5.10;99.90;;;;;;5054545;28;20175;-79
2023/02/15 07:30:49;;;;;;;60.17;27.73;;;5.10;99.90;;;;;;5054874;28;20167;-80
2023/02/15 07:33:24;;;;;;;69.00;28.17;;;5.20;99.90;;;;;;5054817;28;20191;-80
2023/02/15 07:35:51;;;;;;;52.60;27.20;;;5.30;99.90;;;;;;5054714;28;20616;-79
2023/02/15 07:38:17;;;;;;;49.53;25.52;;;5.40;99.90;;;;;;5054710;28;20616;-79
2023/02/15 07:40:44;;;;;;;62.03;27.88;;;5.40;99.90;;;;;;5054652;28;20229;-79
2023/02/15 07:43:10;;;;;;;55.67;28.08;;;5.30;99.90;;;;;;5037393;28;20261;-80
2023/02/15 07:45:37;;;;;;;54.28;27.33;;;5.40;99.90;;;;;;5054194;28;20616;-79
2023/02/15 07:48:03;;;;;;;55.20;25.98;;;5.50;99.90;;;;;;5036361;28;20170;-84
2023/02/15 07:50:29;;;;;;;55.10;26.95;;;5.60;99.90;;;;;;5053914;28;20229;-78
2023/02/15 07:52:55;;;;;;;61.28;26.30;;;5.70;99.90;;;;;;5054548;28;20655;-80
2023/02/15 07:55:20;;;;;;;57.25;26.48;;;5.80;99.90;;;;;;5054236;28;20182;-82
2023/02/15 07:57:48;;;;;;;53.95;26.70;;;5.80;99.90;;;;;;5054466;28;20167;-85
2023/02/15 08:00:16;;;;;;;52.20;27.52;;;6.00;99.90;;;;;;5054127;28;20209;-78
2023/02/15 08:02:47;;;;;;;60.13;28.15;;;6.10;99.90;;;;;;5034429;28;20697;-80
2023/02/15 08:05:13;;;;;;;58.05;27.52;;;6.20;99.90;;;;;;5033609;28;20179;-78
2023/02/15 08:07:38;;;;;;;50.15;25.48;;;6.10;99.90;;;;;;5037092;28;20171;-78
2023/02/15 08:10:04;;;;;;;47.50;24.42;;;6.10;99.90;;;;;;5040357;28;20625;-79
2023/02/15 08:12:30;;;;;;;54.13;26.92;;;6.20;99.90;;;;;;5035996;28;20219;-80
2023/02/15 08:14:56;;;;;;;53.80;25.70;;;6.30;99.90;;;;;;5036784;28;20222;-80
2023/02/15 08:17:21;;;;;;;63.88;26.75;;;6.30;99.90;;;;;;5035749;28;20203;-83
2023/02/15 08:19:47;;;;;;;54.70;26.40;;;6.40;99.90;;;;;;5038026;28;20164;-87
2023/02/15 08:22:14;;;;;;;53.53;25.33;;;6.50;99.90;;;;;;5037084;28;20207;-81
2023/02/15 08:24:41;;;;;;;55.00;25.85;;;6.50;99.90;;;;;;5040759;28;20623;-78
2023/02/15 08:27:09;;;;;;;53.95;25.23;;;6.50;99.90;;;;;;5060599;28;20209;-78
2023/02/15 08:29:36;;;;;;;58.30;26.58;;;6.50;99.90;;;;;;5060479;28;20155;-82
2023/02/15 08:32:06;;;;;;;47.67;25.23;;;6.70;99.90;;;;;;5043783;28;20195;-89
2023/02/15 08:34:34;;;;;;;45.65;25.15;;;6.80;99.90;;;;;;5060371;28;20172;-79
2023/02/15 08:37:00;;;;;;;45.90;25.45;;;6.90;99.90;;;;;;5048988;28;20179;-84
2023/02/15 08:39:27;;;;;;;54.00;26.88;;;7.10;99.90;;;;;;5038928;28;20233;-78
2023/02/15 08:41:52;;;;;;;64.28;28.77;;;7.10;99.90;;;;;;5049429;28;20624;-86
2023/02/15 08:44:19;;;;;;;46.65;25.10;;;7.20;99.90;;;;;;5054463;28;20750;-82
2023/02/15 08:46:46;;;;;;;55.53;27.00;;;7.20;99.90;;;;;;5036268;28;20206;-78
2023/02/15 08:49:15;;;;;;;52.13;25.25;;;7.30;99.90;;;;;;5039116;28;20168;-85
2023/02/15 08:51:41;;;;;;;58.15;27.00;;;7.40;99.90;;;;;;5037725;28;20690;-78
2023/02/15 08:54:09;;;;;;;48.85;26.25;;;7.60;99.90;;;;;;5034586;28;20176;-80
2023/02/15 08:56:38;;;;;;;52.28;25.17;;;7.60;99.90;;;;;;5033605;28;20176;-79
2023/02/15 08:59:04;;;;;;;52.05;25.75;;;7.60;99.90;;;;;;5016677;28;20337;-78
2023/02/15 09:01:31;;;;;;;57.33;25.73;;;7.70;99.90;;;;;;5062167;28;20204;-80
2023/02/15 09:03:59;;;;;;;48.90;25.48;;;7.70;99.90;;;;;;5032653;28;20259;-79
2023/02/15 09:06:26;;;;;;;46.50;23.85;;;7.90;99.90;;;;;;5032629;28;20266;-79
2023/02/15 09:08:53;;;;;;;51.63;25.77;;;7.90;99.90;;;;;;5032782;28;20172;-79
2023/02/15 09:11:24;;;;;;;48.33;26.48;;;8.10;99.90;;;;;;5061221;28;20276;-80
2023/02/15 09:13:53;;;;;;;48.75;24.70;;;8.20;99.90;;;;;;5032519;28;20168;-81
2023/02/15 09:16:20;;;;;;;52.10;24.08;;;8.10;99.90;;;;;;5032641;28;20536;-79
2023/02/15 09:18:47;;;;;;;43.75;23.15;;;8.30;99.90;;;;;;5033814;28;20192;-79
2023/02/15 09:21:15;;;;;;;44.58;23.17;;;8.30;99.90;;;;;;5076226;28;20214;-78
2023/02/15 09:23:44;;;;;;;51.03;24.70;;;8.30;99.90;;;;;;5026805;28;20171;-84
2023/02/15 09:26:15;;;;;;;52.70;24.30;;;8.40;99.90;;;;;;5016300;28;20187;-79
2023/02/15 09:28:45;;;;;;;50.42;23.50;;;8.40;99.90;;;;;;5022637;28;20221;-78
2023/02/15 09:31:12;;;;;;;49.75;21.20;;;8.60;99.90;;;;;;5076797;28;20257;-78
2023/02/15 09:33:45;;;;;;;51.80;21.77;;;8.80;99.90;;;;;;5052858;28;20179;-80
2023/02/15 09:36:21;;;;;;;42.30;19.70;;;9.00;99.90;;;;;;5055973;28;20179;-79
2023/02/15 09:39:02;;;;;;;43.58;19.55;;;9.10;99.90;;;;;;5049278;28;20168;-76
2023/02/15 09:41:55;;;;;;;56.25;19.77;;;9.10;99.90;;;;;;5050468;28;20215;-77
2023/02/15 09:44:49;;;;;;;36.63;19.13;;;9.40;99.90;;;;;;5056737;28;20174;-76
2023/02/15 09:47:21;;;;;;;41.92;19.88;;;9.40;99.90;;;;;;5039300;28;20631;-77
2023/02/15 09:50:25;;;;;;;40.83;19.77;;;9.40;99.90;;;;;;5049381;28;20187;-77
2023/02/15 09:53:19;;;;;;;41.95;20.00;;;9.50;99.90;;;;;;5046485;28;20195;-76
2023/02/15 09:56:15;;;;;;;43.35;20.10;;;9.60;99.90;;;;;;5030420;28;20219;-76
2023/02/15 09:59:08;;;;;;;32.88;18.27;;;9.70;99.90;;;;;;5067326;28;20186;-76
2023/02/15 10:02:16;;;;;;;41.85;19.95;;;9.70;99.90;;;;;;5050266;28;20211;-78
2023/02/15 10:05:06;;;;;;;52.55;20.38;;;9.80;99.90;;;;;;5050779;28;20243;-78
2023/02/15 10:08:05;;;;;;;32.97;19.67;;;10.00;99.90;;;;;;5048904;28;20225;-77
2023/02/15 10:10:46;;;;;;;46.03;19.08;;;9.90;99.90;;;;;;5024775;28;20226;-77
2023/02/15 10:13:29;;;;;;;37.95;17.35;;;9.90;99.90;;;;;;5032130;28;20234;-78
2023/02/15 10:16:07;;;;;;;46.67;18.63;;;9.90;99.90;;;;;;5048654;28;20179;-77
2023/02/15 10:19:07;;;;;;;41.13;16.60;;;10.00;99.90;;;;;;5051462;28;20199;-79
2023/02/15 10:22:21;;;;;;;40.97;17.77;;;10.00;99.90;;;;;;5042645;28;20210;-80
2023/02/15 10:25:11;;;;;;;36.58;17.67;;;10.10;99.90;;;;;;5032519;28;20179;-77
2023/02/15 10:27:49;;;;;;;36.03;19.77;;;10.10;99.90;;;;;;5066444;28;20250;-77
2023/02/15 10:30:50;;;;;;;36.75;20.63;;;10.20;99.90;;;;;;5062541;28;20163;-77
2023/02/15 10:33:34;;;;;;;35.67;18.63;;;10.20;99.90;;;;;;5005837;28;20199;-76
2023/02/15 10:36:32;;;;;;;40.60;19.45;;;10.20;99.90;;;;;;5066637;28;20171;-76
2023/02/15 10:39:42;;;;;;;39.50;19.90;;;10.30;99.90;;;;;;5065179;28;20167;-79
2023/02/15 10:42:36;;;;;;;35.30;20.00;;;10.40;99.90;;;;;;4987031;28;20304;-78
2023/02/15 10:45:04;;;;;;;37.67;20.08;;;10.30;99.90;;;;;;4952975;28;20277;-77
2023/02/15 10:47:43;;;;;;;39.72;19.88;;;10.40;99.90;;;;;;4987607;28;20189;-79
2023/02/15 10:50:34;;;;;;;43.40;18.73;;;10.50;99.90;;;;;;4981482;28;20170;-78
2023/02/15 10:53:28;;;;;;;48.50;19.13;;;10.50;99.90;;;;;;4991164;28;20197;-77
2023/02/15 10:56:10;;;;;;;42.05;20.42;;;10.40;99.90;;;;;;5063652;28;20175;-77
2023/02/15 10:58:57;;;;;;;43.10;20.63;;;10.60;99.90;;;;;;5063430;28;20171;-78
2023/02/15 11:01:45;;;;;;;47.17;21.58;;;10.60;99.90;;;;;;5046801;28;20277;-78
2023/02/15 11:04:46;;;;;;;40.78;20.80;;;10.60;99.90;;;;;;5046403;28;20225;-76
2023/02/15 11:07:19;;;;;;;32.70;19.13;;;10.50;99.90;;;;;;4982945;28;20183;-77
2023/02/15 11:09:49;;;;;;;39.20;18.83;;;10.60;99.90;;;;;;5061616;28;20253;-77
2023/02/15 11:12:23;;;;;;;36.35;20.25;;;10.80;99.90;;;;;;5068624;28;20191;-78
2023/02/15 11:15:28;;;;;;;41.47;20.52;;;11.00;99.90;;;;;;5064914;28;20175;-78
2023/02/15 11:18:21;;;;;;;35.88;19.15;;;11.10;99.90;;;;;;5046778;28;20198;-78
2023/02/15 11:20:54;;;;;;;36.55;18.63;;;11.20;99.90;;;;;;5060322;28;20697;-78
2023/02/15 11:23:20;;;;;;;39.42;19.55;;;11.40;99.90;;;;;;5054674;28;20682;-78
2023/02/15 11:25:58;;;;;;;38.10;20.17;;;11.50;99.90;;;;;;5055498;28;20558;-78
2023/02/15 11:28:31;;;;;;;33.47;18.95;;;11.40;99.90;;;;;;5037886;28;20234;-78
2023/02/15 11:31:00;;;;;;;37.30;19.17;;;11.20;99.90;;;;;;5054394;28;20655;-78
2023/02/15 11:33:31;;;;;;;35.58;20.02;;;11.30;99.90;;;;;;5055075;28;20190;-78
2023/02/15 11:36:17;;;;;;;35.92;21.25;;;11.40;99.90;;;;;;5059287;28;20246;-77
2023/02/15 11:38:44;;;;;;;41.30;22.10;;;11.50;99.90;;;;;;5043775;28;20640;-78
2023/02/15 11:41:13;;;;;;;36.28;19.60;;;11.60;99.90;;;;;;5054718;28;20202;-78
2023/02/15 11:44:06;;;;;;;40.55;20.55;;;11.80;99.90;;;;;;5055070;28;20273;-78
2023/02/15 11:46:32;;;;;;;35.80;20.33;;;11.90;99.90;;;;;;5056577;28;20177;-79
2023/02/15 11:48:58;;;;;;;48.80;21.25;;;12.00;99.90;;;;;;5055286;28;20533;-79
2023/02/15 11:51:24;;;;;;;45.03;20.75;;;12.20;99.90;;;;;;5055245;28;20177;-78
2023/02/15 11:53:51;;;;;;;41.10;20.40;;;12.30;99.90;;;;;;5055059;28;20168;-79
2023/02/15 11:56:25;;;;;;;47.00;22.20;;;12.50;99.90;;;;;;5037279;28;20546;-78
2023/02/15 11:59:08;;;;;;;39.35;22.73;;;12.50;99.90;;;;;;5055228;28;20160;-78
2023/02/15 12:01:42;;;;;;;40.40;21.67;;;12.50;99.90;;;;;;5036635;28;20728;-78
2023/02/15 12:04:38;;;;;;;43.50;22.00;;;12.50;99.90;;;;;;5054384;28;20570;-80
2023/02/15 12:07:36;;;;;;;42.55;21.77;;;12.60;99.90;;;;;;5063778;28;20172;-79
2023/02/15 12:10:21;;;;;;;44.22;23.13;;;12.40;99.90;;;;;;5055436;28;20168;-79
2023/02/15 12:12:47;;;;;;;48.70;22.77;;;12.30;99.90;;;;;;5063741;28;20202;-79
2023/02/15 12:15:17;;;;;;;44.60;23.08;;;12.40;99.90;;;;;;5059593;28;20174;-79
2023/02/15 12:17:51;;;;;;;53.63;24.73;;;12.40;99.90;;;;;;5046750;28;20193;-79
2023/02/15 12:20:17;;;;;;;43.83;22.10;;;12.50;99.90;;;;;;5062313;28;20166;-77
2023/02/15 12:22:50;;;;;;;49.00;23.80;;;12.50;99.90;;;;;;5058032;28;20198;-78
2023/02/15 12:25:37;;;;;;;56.58;24.38;;;12.40;99.90;;;;;;5057444;28;20171;-78
2023/02/15 12:28:04;;;;;;;51.80;24.20;;;12.30;99.90;;;;;;5045005;28;20585;-78
2023/02/15 12:30:34;;;;;;;50.28;24.52;;;12.30;99.90;;;;;;5060230;28;20226;-78
2023/02/15 12:33:25;;;;;;;56.60;24.65;;;12.20;99.90;;;;;;5049326;28;20198;-80
2023/02/15 12:35:59;;;;;;;43.95;23.90;;;12.10;99.90;;;;;;5062296;28;20250;-79
2023/02/15 12:38:27;;;;;;;49.38;24.10;;;12.20;99.90;;;;;;5052703;28;20167;-79
2023/02/15 12:41:24;;;;;;;40.08;22.70;;;12.20;99.90;;;;;;5036903;28;20582;-80
2023/02/15 12:44:05;;;;;;;47.20;24.73;;;12.30;99.90;;;;;;5057653;28;20166;-78
2023/02/15 12:46:34;;;;;;;48.05;25.08;;;12.50;99.90;;;;;;5054976;28;20170;-78
2023/02/15 12:49:17;;;;;;;49.83;25.38;;;12.60;99.90;;;;;;5054524;28;20163;-78
2023/02/15 12:51:47;;;;;;;42.67;23.27;;;12.60;99.90;;;;;;5055424;28;20179;-79
2023/02/15 12:54:29;;;;;;;53.42;23.42;;;12.70;99.90;;;;;;5042059;28;20577;-78
2023/02/15 12:56:57;;;;;;;49.67;23.80;;;12.80;99.90;;;;;;5063471;28;20305;-83
2023/02/15 12:59:27;;;;;;;43.55;22.67;;;12.70;99.90;;;;;;5062587;28;20167;-77
2023/02/15 13:01:53;;;;;;;49.85;24.90;;;12.60;99.90;;;;;;5039766;28;20747;-78
2023/02/15 13:04:26;;;;;;;43.55;24.05;;;12.60;99.90;;;;;;5044521;28;20508;-78
2023/02/15 13:06:58;;;;;;;54.30;23.73;;;12.50;99.90;;;;;;5058287;28;20174;-76
2023/02/15 13:09:31;;;;;;;46.38;23.33;;;12.60;99.90;;;;;;5054902;28;20177;-76
2023/02/15 13:12:08;;;;;;;41.22;23.27;;;12.70;99.90;;;;;;5053644;28;20182;-77
2023/02/15 13:14:36;;;;;;;43.95;23.23;;;12.80;99.90;;;;;;5052971;28;20221;-80
2023/02/15 13:17:04;;;;;;;57.10;23.55;;;12.70;99.90;;;;;;5053926;28;20241;-79
2023/02/15 13:19:39;;;;;;;50.78;23.38;;;12.80;99.90;;;;;;5052128;28;20260;-79
2023/02/15 13:22:16;;;;;;;49.88;24.13;;;12.90;99.90;;;;;;5050575;28;20214;-78
2023/02/15 13:24:55;;;;;;;50.83;24.67;;;12.90;99.90;;;;;;5053300;28;20167;-79